sensor_id;sensor_type;location;lat;lon;timestamp;pressure;altitude;pressure_sealevel;temperature;humidity
80511;BME280;69840;53.040;8.600;2023-08-20T10:57:14;102281.31;;;27.71;53.84
80511;BME280;69840;53.040;8.600;2023-08-20T11:01:27;102276.38;;;29.69;52.38
80511;BME280;69840;53.040;8.600;2023-08-20T11:05:40;102278.63;;;29.99;50.03
80511;BME280;69840;53.040;8.600;2023-08-20T11:09:52;102274.91;;;29.01;52.45
80511;BME280;69840;53.040;8.600;2023-08-20T11:14:07;102287.91;;;28.94;52.08
80511;BME280;69840;53.040;8.600;2023-08-20T11:18:20;102280.59;;;29.00;52.41
80511;BME280;69840;53.040;8.600;2023-08-20T11:22:33;102277.97;;;28.38;52.25
80511;BME280;69840;53.040;8.600;2023-08-20T11:26:46;102271.69;;;30.13;47.10
80511;BME280;69840;53.040;8.600;2023-08-20T11:31:34;102270.94;;;30.23;44.72
80511;BME280;69840;53.040;8.600;2023-08-20T11:35:48;102281.22;;;29.23;47.56
80511;BME280;69840;53.040;8.600;2023-08-20T11:40:00;102286.06;;;29.38;45.96
80511;BME280;69840;53.040;8.600;2023-08-20T11:44:20;102273.00;;;29.62;44.70
80511;BME280;69840;53.040;8.600;2023-08-20T11:48:33;102271.97;;;30.44;44.96
80511;BME280;69840;53.040;8.600;2023-08-20T11:52:45;102276.13;;;33.79;37.66
80511;BME280;69840;53.040;8.600;2023-08-20T11:57:03;102275.09;;;33.60;37.24
80511;BME280;69840;53.040;8.600;2023-08-20T12:01:17;102267.09;;;35.71;33.77
80511;BME280;69840;53.040;8.600;2023-08-20T12:05:31;102258.41;;;36.66;32.75
80511;BME280;69840;53.040;8.600;2023-08-20T12:09:43;102260.38;;;35.58;32.61
80511;BME280;69840;53.040;8.600;2023-08-20T12:13:57;102254.06;;;33.94;36.89
80511;BME280;69840;53.040;8.600;2023-08-20T12:18:10;102241.91;;;36.34;30.62
80511;BME280;69840;53.040;8.600;2023-08-20T12:22:22;102242.34;;;37.28;30.76
80511;BME280;69840;53.040;8.600;2023-08-20T12:26:36;102233.25;;;39.32;24.43
80511;BME280;69840;53.040;8.600;2023-08-20T12:30:48;102235.03;;;40.23;23.73
80511;BME280;69840;53.040;8.600;2023-08-20T12:35:01;102231.66;;;41.02;22.55
80511;BME280;69840;53.040;8.600;2023-08-20T12:39:13;102217.66;;;38.88;25.29
80511;BME280;69840;53.040;8.600;2023-08-20T12:43:26;102209.66;;;36.80;27.70
80511;BME280;69840;53.040;8.600;2023-08-20T12:47:39;102220.28;;;36.41;28.94
80511;BME280;69840;53.040;8.600;2023-08-20T12:51:52;102218.53;;;35.80;29.26
80511;BME280;69840;53.040;8.600;2023-08-20T12:56:04;102216.19;;;36.98;30.04
80511;BME280;69840;53.040;8.600;2023-08-20T13:00:17;102207.97;;;39.16;24.91
80511;BME280;69840;53.040;8.600;2023-08-20T13:04:30;102217.88;;;35.88;29.40
80511;BME280;69840;53.040;8.600;2023-08-20T13:08:43;102215.91;;;37.49;28.07
80511;BME280;69840;53.040;8.600;2023-08-20T13:13:00;102212.53;;;38.11;25.87
80511;BME280;69840;53.040;8.600;2023-08-20T13:17:13;102204.28;;;36.43;27.12
80511;BME280;69840;53.040;8.600;2023-08-20T13:21:26;102207.31;;;35.76;31.15
80511;BME280;69840;53.040;8.600;2023-08-20T13:25:38;102199.94;;;35.53;29.64
80511;BME280;69840;53.040;8.600;2023-08-20T13:29:51;102193.78;;;33.35;32.36
80511;BME280;69840;53.040;8.600;2023-08-20T13:34:04;102195.34;;;32.82;37.60
80511;BME280;69840;53.040;8.600;2023-08-20T13:38:17;102187.81;;;33.13;35.83
80511;BME280;69840;53.040;8.600;2023-08-20T13:42:29;102202.72;;;32.86;35.09
80511;BME280;69840;53.040;8.600;2023-08-20T13:46:42;102197.59;;;32.03;38.27
80511;BME280;69840;53.040;8.600;2023-08-20T13:50:54;102189.94;;;33.36;32.70
80511;BME280;69840;53.040;8.600;2023-08-20T13:55:07;102191.25;;;33.49;32.89
80511;BME280;69840;53.040;8.600;2023-08-20T13:59:20;102187.53;;;33.19;33.83
80511;BME280;69840;53.040;8.600;2023-08-20T14:03:33;102183.94;;;33.29;33.70
80511;BME280;69840;53.040;8.600;2023-08-20T14:07:45;102188.97;;;33.56;32.84
80511;BME280;69840;53.040;8.600;2023-08-20T14:11:58;102190.84;;;34.38;34.87
80511;BME280;69840;53.040;8.600;2023-08-20T14:16:11;102185.13;;;33.57;32.78
80511;BME280;69840;53.040;8.600;2023-08-20T14:20:23;102182.56;;;33.31;33.68
80511;BME280;69840;53.040;8.600;2023-08-20T14:24:36;102180.97;;;34.03;31.81
80511;BME280;69840;53.040;8.600;2023-08-20T14:28:49;102185.91;;;33.08;37.58
80511;BME280;69840;53.040;8.600;2023-08-20T14:33:02;102180.81;;;33.90;37.16
80511;BME280;69840;53.040;8.600;2023-08-20T14:37:15;102179.09;;;33.05;34.72
80511;BME280;69840;53.040;8.600;2023-08-20T14:41:28;102175.94;;;32.48;38.78
80511;BME280;69840;53.040;8.600;2023-08-20T14:45:40;102180.00;;;31.59;35.31
80511;BME280;69840;53.040;8.600;2023-08-20T14:49:53;102189.00;;;31.44;37.69
80511;BME280;69840;53.040;8.600;2023-08-20T14:54:06;102180.06;;;32.04;36.82
80511;BME280;69840;53.040;8.600;2023-08-20T14:58:18;102182.78;;;32.50;34.37
80511;BME280;69840;53.040;8.600;2023-08-20T15:02:31;102181.09;;;32.80;35.66
80511;BME280;69840;53.040;8.600;2023-08-20T15:06:44;102187.66;;;32.89;33.27
80511;BME280;69840;53.040;8.600;2023-08-20T15:11:00;102185.22;;;32.82;32.79
80511;BME280;69840;53.040;8.600;2023-08-20T15:15:13;102177.06;;;31.86;35.42
80511;BME280;69840;53.040;8.600;2023-08-20T15:19:26;102188.53;;;31.83;36.05
80511;BME280;69840;53.040;8.600;2023-08-20T15:23:38;102184.84;;;29.73;38.10
80511;BME280;69840;53.040;8.600;2023-08-20T15:27:51;102190.13;;;30.91;36.57
80511;BME280;69840;53.040;8.600;2023-08-20T15:32:04;102183.53;;;29.54;40.58
80511;BME280;69840;53.040;8.600;2023-08-20T15:36:17;102184.25;;;29.22;41.08
80511;BME280;69840;53.040;8.600;2023-08-20T15:40:30;102189.41;;;29.41;42.52
80511;BME280;69840;53.040;8.600;2023-08-20T15:44:44;102172.59;;;29.05;38.10
80511;BME280;69840;53.040;8.600;2023-08-20T15:48:56;102164.72;;;29.30;39.26
80511;BME280;69840;53.040;8.600;2023-08-20T15:53:09;102168.06;;;29.91;40.16
80511;BME280;69840;53.040;8.600;2023-08-20T15:57:22;102160.25;;;29.41;40.41
80511;BME280;69840;53.040;8.600;2023-08-20T16:01:34;102161.69;;;28.67;40.14
80511;BME280;69840;53.040;8.600;2023-08-20T16:05:47;102156.00;;;29.07;38.21
80511;BME280;69840;53.040;8.600;2023-08-20T16:10:00;102161.81;;;28.38;37.99
80511;BME280;69840;53.040;8.600;2023-08-20T16:14:12;102158.75;;;28.18;39.47
80511;BME280;69840;53.040;8.600;2023-08-20T16:18:25;102166.81;;;27.79;40.13
80511;BME280;69840;53.040;8.600;2023-08-20T16:22:38;102166.69;;;27.17;40.08
80511;BME280;69840;53.040;8.600;2023-08-20T16:26:51;102164.47;;;27.71;42.97
80511;BME280;69840;53.040;8.600;2023-08-20T16:31:05;102154.66;;;27.42;40.65
80511;BME280;69840;53.040;8.600;2023-08-20T16:35:17;102161.06;;;27.07;40.43
80511;BME280;69840;53.040;8.600;2023-08-20T16:39:30;102163.88;;;26.77;40.94
80511;BME280;69840;53.040;8.600;2023-08-20T16:43:43;102167.09;;;26.39;45.53
80511;BME280;69840;53.040;8.600;2023-08-20T16:47:56;102171.22;;;26.42;42.51
80511;BME280;69840;53.040;8.600;2023-08-20T16:52:10;102169.78;;;26.28;43.33
80511;BME280;69840;53.040;8.600;2023-08-20T16:56:23;102172.84;;;26.31;43.73
80511;BME280;69840;53.040;8.600;2023-08-20T17:12:37;102180.78;;;26.03;43.67
80511;BME280;69840;53.040;8.600;2023-08-20T17:16:50;102183.38;;;25.98;44.46
80511;BME280;69840;53.040;8.600;2023-08-20T17:21:03;102187.03;;;25.92;44.22
80511;BME280;69840;53.040;8.600;2023-08-20T17:25:16;102181.69;;;25.85;44.14
80511;BME280;69840;53.040;8.600;2023-08-20T17:29:29;102185.13;;;25.80;43.25
80511;BME280;69840;53.040;8.600;2023-08-20T17:33:42;102179.78;;;25.74;46.86
80511;BME280;69840;53.040;8.600;2023-08-20T17:37:56;102186.13;;;25.49;46.08
80511;BME280;69840;53.040;8.600;2023-08-20T17:42:09;102179.28;;;25.47;47.73
80511;BME280;69840;53.040;8.600;2023-08-20T17:46:21;102171.25;;;25.22;47.44
80511;BME280;69840;53.040;8.600;2023-08-20T17:50:35;102179.25;;;25.17;47.57
80511;BME280;69840;53.040;8.600;2023-08-20T17:54:48;102183.47;;;24.88;50.54
80511;BME280;69840;53.040;8.600;2023-08-20T17:59:01;102183.03;;;24.73;51.64
80511;BME280;69840;53.040;8.600;2023-08-20T18:03:14;102195.34;;;24.19;55.72
80511;BME280;69840;53.040;8.600;2023-08-20T18:07:26;102196.56;;;23.92;58.27
80511;BME280;69840;53.040;8.600;2023-08-20T18:11:40;102196.56;;;23.54;62.01
80511;BME280;69840;53.040;8.600;2023-08-20T18:15:53;102199.47;;;23.45;62.95
80511;BME280;69840;53.040;8.600;2023-08-20T18:20:06;102208.69;;;23.25;64.58
80511;BME280;69840;53.040;8.600;2023-08-20T18:24:19;102208.75;;;22.98;65.25
80511;BME280;69840;53.040;8.600;2023-08-20T18:28:32;102216.88;;;22.85;66.47
80511;BME280;69840;53.040;8.600;2023-08-20T18:32:45;102231.59;;;22.76;67.10
